Time;durP1;ratioP1;P1;durP2;ratioP2;P2;SDS_P1;SDS_P2;PMS_P1;PMS_P2;Temp;Humidity;BMP_temperature;BMP_pressure;BME280_temperature;BME280_humidity;BME280_pressure;Samples;Min_cycle;Max_cycle;Signal;HPM_P1;HPM_P2
2021/09/01 00:00:21;;;;;;;14.55;4.90;;;16.00;99.90;;;;;;6126490;23;20028;-69
2021/09/01 00:02:47;;;;;;;14.93;5.10;;;16.00;99.90;;;;;;6126597;23;20013;-69
2021/09/01 00:05:12;;;;;;;10.88;4.45;;;16.00;99.90;;;;;;6152925;23;20017;-69
2021/09/01 00:07:38;;;;;;;13.00;4.57;;;16.00;99.90;;;;;;6126568;23;20013;-69
2021/09/01 00:10:05;;;;;;;13.38;4.88;;;16.00;99.90;;;;;;6126456;23;20393;-69
2021/09/01 00:12:31;;;;;;;12.60;4.45;;;16.00;99.90;;;;;;6126572;23;20018;-71
2021/09/01 00:14:56;;;;;;;16.70;5.10;;;16.00;99.90;;;;;;6127007;23;20088;-71
2021/09/01 00:17:22;;;;;;;11.40;4.63;;;16.00;99.90;;;;;;6126666;23;20037;-69
2021/09/01 00:19:48;;;;;;;12.60;4.53;;;16.00;99.90;;;;;;6125810;23;20025;-71
2021/09/01 00:22:13;;;;;;;15.57;5.55;;;16.00;99.90;;;;;;6126250;23;20029;-69
2021/09/01 00:24:39;;;;;;;15.85;4.60;;;15.90;99.90;;;;;;6126355;23;20061;-69
2021/09/01 00:27:05;;;;;;;14.52;4.65;;;15.90;99.90;;;;;;6126455;23;20041;-69
2021/09/01 00:29:31;;;;;;;12.30;4.40;;;15.90;99.90;;;;;;6126251;23;20064;-69
2021/09/01 00:31:56;;;;;;;13.75;4.95;;;15.90;99.90;;;;;;6126505;23;20021;-69
2021/09/01 00:34:22;;;;;;;13.45;4.90;;;15.90;99.90;;;;;;6126592;23;20017;-69
2021/09/01 00:36:47;;;;;;;15.95;4.63;;;15.90;99.90;;;;;;6126490;23;20092;-69
2021/09/01 00:39:13;;;;;;;13.15;4.60;;;15.90;99.90;;;;;;6126519;23;20021;-69
2021/09/01 00:41:38;;;;;;;11.55;4.50;;;15.90;99.90;;;;;;6126203;23;20021;-69
2021/09/01 00:44:23;;;;;;;17.40;4.93;;;15.90;99.90;;;;;;6102036;23;20025;-69
2021/09/01 00:46:53;;;;;;;13.38;4.40;;;15.90;99.90;;;;;;6126245;23;20631;-69
2021/09/01 00:49:19;;;;;;;16.15;5.10;;;15.90;99.90;;;;;;6126291;23;20021;-70
2021/09/01 00:51:51;;;;;;;11.27;4.35;;;15.90;99.90;;;;;;6126146;23;20023;-70
2021/09/01 00:54:17;;;;;;;;;;;15.90;99.90;;;;;;6153776;23;20017;-69
2021/09/01 00:56:45;;;;;;;11.27;5.18;;;15.80;99.90;;;;;;6126443;23;19935;-69
2021/09/01 00:59:15;;;;;;;12.63;4.22;;;15.90;99.90;;;;;;6126295;23;20438;-70
2021/09/01 01:01:43;;;;;;;15.18;4.70;;;15.90;99.90;;;;;;6126195;23;20063;-69
2021/09/01 01:04:09;;;;;;;12.32;4.82;;;15.90;99.90;;;;;;6101832;23;20017;-69
2021/09/01 01:06:34;;;;;;;15.13;5.05;;;15.90;99.90;;;;;;6152582;23;20025;-69
2021/09/01 01:09:00;;;;;;;13.57;4.35;;;15.90;99.90;;;;;;6126285;23;20013;-70
2021/09/01 01:11:25;;;;;;;14.55;4.93;;;15.90;99.90;;;;;;6125951;23;20037;-70
2021/09/01 01:13:52;;;;;;;13.25;4.55;;;15.90;99.90;;;;;;6152786;23;20014;-70
2021/09/01 01:16:19;;;;;;;13.70;4.75;;;15.80;99.90;;;;;;6126286;23;20100;-70
2021/09/01 01:18:49;;;;;;;13.98;5.10;;;15.80;99.90;;;;;;6126232;23;20033;-70
2021/09/01 01:21:27;;;;;;;13.70;4.75;;;15.90;99.90;;;;;;6125908;23;20021;-70
2021/09/01 01:23:53;;;;;;;14.93;5.45;;;15.80;99.90;;;;;;6126136;23;20025;-70
2021/09/01 01:26:20;;;;;;;14.52;4.75;;;15.80;99.90;;;;;;6126083;23;20016;-70
2021/09/01 01:29:01;;;;;;;14.55;4.72;;;15.80;99.90;;;;;;6126092;23;20541;-70
2021/09/01 01:31:27;;;;;;;11.95;4.72;;;15.80;99.90;;;;;;6127264;23;20016;-70
2021/09/01 01:33:53;;;;;;;16.05;5.05;;;15.90;99.90;;;;;;6128078;23;20018;-70
2021/09/01 01:36:20;;;;;;;11.52;4.88;;;15.80;99.90;;;;;;6128082;23;20083;-69
2021/09/01 01:38:46;;;;;;;17.40;5.53;;;15.80;99.90;;;;;;6103785;23;20009;-70
2021/09/01 01:41:11;;;;;;;12.80;5.15;;;15.80;99.90;;;;;;6103473;23;20310;-70
2021/09/01 01:43:38;;;;;;;12.38;5.07;;;15.80;99.90;;;;;;6154142;23;20017;-70
2021/09/01 01:46:07;;;;;;;12.88;4.88;;;15.80;99.90;;;;;;6127807;23;20080;-70
2021/09/01 01:48:33;;;;;;;14.20;4.97;;;15.80;99.90;;;;;;6127877;23;20494;-70
2021/09/01 01:51:00;;;;;;;10.20;5.60;;;15.80;99.90;;;;;;6127772;23;20024;-70
2021/09/01 01:53:26;;;;;;;14.77;5.93;;;15.80;99.90;;;;;;6127943;23;20020;-69
2021/09/01 01:55:51;;;;;;;17.23;5.13;;;15.80;99.90;;;;;;6154208;23;20437;-69
2021/09/01 01:58:17;;;;;;;12.55;5.15;;;15.70;99.90;;;;;;6127996;23;20100;-69
2021/09/01 02:00:43;;;;;;;15.70;5.20;;;15.70;99.90;;;;;;6127844;23;20017;-70
2021/09/01 02:03:08;;;;;;;13.73;5.15;;;15.70;99.90;;;;;;6127718;23;20019;-69
2021/09/01 02:05:34;;;;;;;16.33;5.28;;;15.80;99.90;;;;;;6127765;23;20100;-69
2021/09/01 02:07:59;;;;;;;14.65;5.35;;;15.70;99.90;;;;;;6127643;23;20434;-69
2021/09/01 02:10:25;;;;;;;14.60;4.75;;;15.70;99.90;;;;;;6127593;23;20023;-70
2021/09/01 02:12:50;;;;;;;12.80;4.90;;;15.70;99.90;;;;;;6127533;23;20045;-70
2021/09/01 02:15:16;;;;;;;11.27;4.93;;;15.80;99.90;;;;;;6127696;23;20021;-70
2021/09/01 02:17:43;;;;;;;15.30;4.93;;;15.80;99.90;;;;;;6127517;23;20010;-70
2021/09/01 02:20:10;;;;;;;12.77;4.85;;;15.70;99.90;;;;;;6154178;23;20036;-69
2021/09/01 02:22:36;;;;;;;11.40;4.82;;;15.70;99.90;;;;;;6127451;23;20017;-70
2021/09/01 02:25:03;;;;;;;13.30;5.22;;;15.70;99.90;;;;;;6103181;23;20013;-70
2021/09/01 02:27:29;;;;;;;12.70;5.30;;;15.70;99.90;;;;;;6102953;23;20052;-70
2021/09/01 02:29:55;;;;;;;13.85;5.13;;;15.70;99.90;;;;;;6127349;23;20338;-69
2021/09/01 02:32:20;;;;;;;13.88;5.68;;;15.70;99.90;;;;;;6127393;23;20052;-69
2021/09/01 02:34:46;;;;;;;13.65;5.00;;;15.70;99.90;;;;;;6127529;23;20512;-70
2021/09/01 02:37:11;;;;;;;12.23;4.75;;;15.70;99.90;;;;;;6127316;23;20013;-70
2021/09/01 02:39:37;;;;;;;13.68;4.72;;;15.70;99.90;;;;;;6127473;23;20010;-70
2021/09/01 02:42:03;;;;;;;10.70;5.13;;;15.70;99.90;;;;;;6151768;23;20136;-69
2021/09/01 02:44:28;;;;;;;13.13;4.97;;;15.60;99.90;;;;;;6127535;23;20461;-69
2021/09/01 02:46:54;;;;;;;12.35;5.00;;;15.60;99.90;;;;;;6127332;23;20429;-69
2021/09/01 02:49:19;;;;;;;18.10;4.80;;;15.60;99.90;;;;;;6127284;23;20017;-70
2021/09/01 02:51:45;;;;;;;13.38;5.00;;;15.60;99.90;;;;;;6151867;23;20017;-70
2021/09/01 02:54:11;;;;;;;14.05;4.70;;;15.60;99.90;;;;;;6127107;23;20021;-69
2021/09/01 02:56:36;;;;;;;12.38;4.88;;;15.60;99.90;;;;;;6153433;23;20072;-70
2021/09/01 02:59:02;;;;;;;15.65;5.90;;;15.60;99.90;;;;;;6127603;23;20021;-70
2021/09/01 03:01:27;;;;;;;12.60;5.20;;;15.60;99.90;;;;;;6127406;23;20024;-70
2021/09/01 03:03:53;;;;;;;17.48;5.38;;;15.60;99.90;;;;;;6127101;23;20501;-70
2021/09/01 03:06:18;;;;;;;17.67;6.30;;;15.60;99.90;;;;;;6153410;23;20024;-70
2021/09/01 03:08:44;;;;;;;15.05;5.80;;;15.60;99.90;;;;;;6127043;23;20005;-70
2021/09/01 03:11:09;;;;;;;10.73;5.45;;;15.60;99.90;;;;;;6127076;23;20342;-69
2021/09/01 03:13:35;;;;;;;14.23;5.28;;;15.60;99.90;;;;;;6127044;23;20029;-70
2021/09/01 03:16:01;;;;;;;17.73;5.57;;;15.60;99.90;;;;;;6127139;23;20288;-70
2021/09/01 03:18:27;;;;;;;14.85;5.38;;;15.60;99.90;;;;;;6126898;23;20006;-69
2021/09/01 03:20:52;;;;;;;11.32;4.82;;;15.60;99.90;;;;;;6127161;23;20010;-70
2021/09/01 03:23:18;;;;;;;14.10;5.53;;;15.60;99.90;;;;;;6126735;23;20029;-69
2021/09/01 03:25:44;;;;;;;13.85;5.18;;;15.60;99.90;;;;;;6153157;23;20036;-70
2021/09/01 03:28:10;;;;;;;10.75;4.88;;;15.60;99.90;;;;;;6126907;23;20014;-70
2021/09/01 03:30:35;;;;;;;14.00;5.45;;;15.60;99.90;;;;;;6126839;23;20092;-69
2021/09/01 03:33:01;;;;;;;14.15;4.75;;;15.60;99.90;;;;;;6126849;23;20084;-69
2021/09/01 03:35:27;;;;;;;14.38;5.25;;;15.50;99.90;;;;;;6126894;23;20422;-69
2021/09/01 03:37:52;;;;;;;13.00;5.05;;;15.60;99.90;;;;;;6126743;23;20515;-69
2021/09/01 03:40:18;;;;;;;10.52;5.18;;;15.60;99.90;;;;;;6126936;23;20021;-69
2021/09/01 03:42:44;;;;;;;13.55;5.35;;;15.60;99.90;;;;;;6102398;23;20101;-70
2021/09/01 03:45:11;;;;;;;11.50;4.78;;;15.50;99.90;;;;;;6102708;23;20013;-70
2021/09/01 03:47:37;;;;;;;13.27;5.38;;;15.50;99.90;;;;;;6126809;23;20024;-70
2021/09/01 03:50:05;;;;;;;15.05;5.97;;;15.50;99.90;;;;;;6126582;23;20010;-70
2021/09/01 03:52:31;;;;;;;11.02;5.15;;;15.50;99.90;;;;;;6126788;23;20013;-70
2021/09/01 03:54:56;;;;;;;14.45;5.10;;;15.50;99.90;;;;;;6126096;23;20052;-70
2021/09/01 03:57:22;;;;;;;14.30;5.55;;;15.50;99.90;;;;;;6102459;23;20381;-70
2021/09/01 03:59:47;;;;;;;13.57;5.03;;;15.50;99.90;;;;;;6126701;23;20353;-70
2021/09/01 04:02:13;;;;;;;15.25;5.72;;;15.50;99.90;;;;;;6126762;23;20457;-70
2021/09/01 04:04:39;;;;;;;13.65;5.68;;;15.50;99.90;;;;;;6153074;23;20449;-70
2021/09/01 04:07:04;;;;;;;12.70;5.43;;;15.50;99.90;;;;;;6126567;23;20014;-70
2021/09/01 04:09:30;;;;;;;14.57;5.00;;;15.40;99.90;;;;;;6126420;23;20438;-70
2021/09/01 04:11:56;;;;;;;14.30;5.50;;;15.40;99.90;;;;;;6126469;23;20084;-70
2021/09/01 04:14:22;;;;;;;11.73;4.88;;;15.40;99.90;;;;;;6126370;23;20041;-70
2021/09/01 04:16:48;;;;;;;11.73;5.10;;;15.40;99.90;;;;;;6126631;23;20334;-70
2021/09/01 04:19:13;;;;;;;14.70;5.35;;;15.40;99.90;;;;;;6126291;23;20017;-70
2021/09/01 04:21:39;;;;;;;11.55;5.35;;;15.40;99.90;;;;;;6126358;23;20029;-70
2021/09/01 04:24:04;;;;;;;12.38;4.97;;;15.40;99.90;;;;;;6126744;23;20017;-70
2021/09/01 04:26:30;;;;;;;12.48;5.43;;;15.40;99.90;;;;;;6126478;23;20018;-70
2021/09/01 04:28:55;;;;;;;10.93;5.20;;;15.40;99.90;;;;;;6152778;23;20025;-70
2021/09/01 04:31:21;;;;;;;11.15;4.85;;;15.40;99.90;;;;;;6126290;23;20068;-70
2021/09/01 04:33:46;;;;;;;10.88;5.03;;;15.40;99.90;;;;;;6152722;23;20319;-70
2021/09/01 04:36:12;;;;;;;13.05;5.65;;;15.40;99.90;;;;;;6126489;23;20083;-70
2021/09/01 04:38:38;;;;;;;10.45;4.47;;;15.40;99.90;;;;;;6126469;23;20227;-70
2021/09/01 04:41:03;;;;;;;9.77;4.45;;;15.40;99.90;;;;;;6126519;23;20052;-70
2021/09/01 04:43:29;;;;;;;13.65;5.28;;;15.40;99.90;;;;;;6152878;23;20023;-69
2021/09/01 04:45:54;;;;;;;9.70;4.75;;;15.40;99.90;;;;;;6126268;23;20021;-70
2021/09/01 04:48:20;;;;;;;11.57;5.00;;;15.40;99.90;;;;;;6126389;23;20069;-70
2021/09/01 04:50:46;;;;;;;11.50;5.03;;;15.40;99.90;;;;;;6126136;23;20018;-69
2021/09/01 04:53:11;;;;;;;10.70;4.80;;;15.40;99.90;;;;;;6126300;23;20018;-69
2021/09/01 04:55:37;;;;;;;8.55;4.78;;;15.40;99.90;;;;;;6152302;23;20013;-70
2021/09/01 04:58:03;;;;;;;12.85;4.93;;;15.40;99.90;;;;;;6126248;23;20084;-70
2021/09/01 05:00:28;;;;;;;12.30;4.45;;;15.40;99.90;;;;;;6125995;23;20053;-70
2021/09/01 05:02:54;;;;;;;11.07;4.63;;;15.40;99.90;;;;;;6101683;23;20025;-70
2021/09/01 05:05:20;;;;;;;14.15;4.93;;;15.40;99.90;;;;;;6126555;23;20014;-69
2021/09/01 05:07:45;;;;;;;10.07;4.90;;;15.40;99.90;;;;;;6127488;23;20101;-69
2021/09/01 05:10:11;;;;;;;11.68;4.78;;;15.40;99.90;;;;;;6127301;23;20014;-69
2021/09/01 05:12:37;;;;;;;10.52;4.85;;;15.40;99.90;;;;;;6103457;23;20022;-69
2021/09/01 05:15:03;;;;;;;14.05;5.43;;;15.40;99.90;;;;;;6128017;23;20500;-69
2021/09/01 05:17:28;;;;;;;12.90;5.30;;;15.40;99.90;;;;;;6128039;23;20024;-69
2021/09/01 05:19:54;;;;;;;13.60;4.93;;;15.40;99.90;;;;;;6128059;23;20041;-72
2021/09/01 05:22:22;;;;;;;10.60;4.75;;;15.50;99.90;;;;;;6110482;23;20010;-72
2021/09/01 05:25:03;;;;;;;11.50;4.50;;;15.50;99.90;;;;;;6098824;23;20018;-72
2021/09/01 05:27:38;;;;;;;13.30;5.78;;;15.50;99.90;;;;;;6099041;23;20013;-72
2021/09/01 05:30:09;;;;;;;14.35;5.05;;;15.50;99.90;;;;;;6075014;23;20061;-72
2021/09/01 05:32:37;;;;;;;12.40;5.15;;;15.50;99.90;;;;;;6098759;23;20097;-72
2021/09/01 05:35:04;;;;;;;11.57;4.70;;;15.50;99.90;;;;;;6098568;23;20010;-72
2021/09/01 05:37:30;;;;;;;14.50;4.85;;;15.50;99.90;;;;;;6098761;23;20045;-72
2021/09/01 05:39:58;;;;;;;13.57;5.35;;;15.50;99.90;;;;;;6098565;23;20013;-72
2021/09/01 05:42:29;;;;;;;11.48;5.15;;;15.60;99.90;;;;;;6124894;23;20025;-72
2021/09/01 05:44:56;;;;;;;17.60;5.00;;;15.60;99.90;;;;;;6124516;23;20454;-72
2021/09/01 05:47:24;;;;;;;10.70;4.78;;;15.60;99.90;;;;;;6098680;23;20014;-72
2021/09/01 05:49:52;;;;;;;12.02;4.65;;;15.60;99.90;;;;;;6098404;23;20013;-72
2021/09/01 05:52:18;;;;;;;11.57;5.28;;;15.60;99.90;;;;;;6124827;23;20026;-72
2021/09/01 05:54:46;;;;;;;12.50;4.70;;;15.70;99.90;;;;;;6124388;23;20568;-72
2021/09/01 05:57:20;;;;;;;13.00;5.20;;;15.70;99.90;;;;;;6124769;23;20076;-72
2021/09/01 05:59:55;;;;;;;10.32;4.43;;;15.70;99.90;;;;;;6098553;23;20017;-72
2021/09/01 06:02:41;;;;;;;13.38;4.40;;;15.70;99.90;;;;;;6098524;23;20431;-72
2021/09/01 06:05:09;;;;;;;10.32;4.63;;;15.80;99.90;;;;;;6124823;23;20014;-72
2021/09/01 06:07:39;;;;;;;11.20;4.93;;;15.80;99.90;;;;;;6098924;23;20020;-72
2021/09/01 06:10:05;;;;;;;11.30;4.50;;;15.80;99.90;;;;;;6124228;23;20010;-72
2021/09/01 06:12:31;;;;;;;14.77;5.65;;;15.80;99.90;;;;;;6124494;23;20096;-72
2021/09/01 06:14:57;;;;;;;13.13;4.85;;;15.90;99.90;;;;;;6124660;23;20034;-72
2021/09/01 06:17:23;;;;;;;11.15;4.45;;;15.90;99.90;;;;;;6097601;23;20009;-72
2021/09/01 06:19:49;;;;;;;10.52;4.90;;;16.00;99.90;;;;;;6124558;23;20456;-72
2021/09/01 06:22:15;;;;;;;12.93;4.75;;;16.00;99.90;;;;;;6098097;23;20471;-72
2021/09/01 06:24:41;;;;;;;12.05;4.95;;;16.00;99.90;;;;;;6098102;23;20450;-72
2021/09/01 06:27:08;;;;;;;12.60;5.10;;;16.00;99.90;;;;;;6098088;23;20049;-72
2021/09/01 06:29:34;;;;;;;10.63;5.00;;;16.10;99.90;;;;;;6124860;23;20010;-72
2021/09/01 06:31:59;;;;;;;13.13;5.15;;;16.10;99.90;;;;;;6097879;23;20442;-72
2021/09/01 06:34:25;;;;;;;9.05;4.70;;;16.10;99.90;;;;;;6098153;23;20053;-72
2021/09/01 06:36:51;;;;;;;11.45;5.05;;;16.10;99.90;;;;;;6124243;23;20081;-72
2021/09/01 06:39:17;;;;;;;12.10;5.30;;;16.20;99.90;;;;;;6124410;23;20010;-72
2021/09/01 06:41:42;;;;;;;10.43;4.70;;;16.20;99.90;;;;;;6124348;23;20014;-72
2021/09/01 06:44:08;;;;;;;13.75;4.80;;;16.20;99.90;;;;;;6073965;23;20021;-72
2021/09/01 06:46:34;;;;;;;13.98;5.28;;;16.20;99.90;;;;;;6097817;23;20354;-72
2021/09/01 06:48:59;;;;;;;13.65;4.97;;;16.30;99.90;;;;;;6097914;23;20022;-72
2021/09/01 06:51:25;;;;;;;13.07;4.78;;;16.30;99.90;;;;;;6123836;23;20017;-72
2021/09/01 06:53:51;;;;;;;12.13;4.75;;;16.40;99.90;;;;;;6124070;23;20110;-72
2021/09/01 06:56:17;;;;;;;11.98;5.75;;;16.40;99.90;;;;;;6073904;23;20016;-72
2021/09/01 06:58:42;;;;;;;14.25;5.53;;;16.40;99.90;;;;;;6124382;23;20014;-72
2021/09/01 07:01:08;;;;;;;15.18;5.13;;;16.50;99.90;;;;;;6097746;23;20108;-72
2021/09/01 07:03:33;;;;;;;10.48;4.35;;;16.50;99.90;;;;;;6124180;23;20101;-72
2021/09/01 07:05:59;;;;;;;10.88;5.03;;;16.50;99.90;;;;;;6124202;23;20062;-72
2021/09/01 07:08:24;;;;;;;10.75;5.18;;;16.60;99.90;;;;;;6097993;23;20014;-72
2021/09/01 07:10:51;;;;;;;13.05;5.10;;;16.60;99.90;;;;;;6097856;23;20429;-72
2021/09/01 07:13:17;;;;;;;12.52;4.65;;;16.60;99.90;;;;;;6124008;23;20100;-72
2021/09/01 07:15:43;;;;;;;12.18;4.93;;;16.60;99.90;;;;;;6124138;23;20010;-72
2021/09/01 07:18:10;;;;;;;11.95;5.15;;;16.60;99.90;;;;;;6097625;23;20010;-72
2021/09/01 07:20:36;;;;;;;12.73;5.25;;;16.70;99.90;;;;;;6097671;23;20350;-72
2021/09/01 07:23:03;;;;;;;8.55;4.10;;;16.70;99.90;;;;;;6097346;23;20474;-72
2021/09/01 07:25:29;;;;;;;13.00;5.05;;;16.70;99.90;;;;;;6097638;23;20105;-72
2021/09/01 07:27:55;;;;;;;9.25;4.65;;;16.80;99.90;;;;;;6097437;23;20053;-72
2021/09/01 07:30:21;;;;;;;10.65;4.22;;;16.80;99.90;;;;;;6097519;23;20022;-72
2021/09/01 07:32:46;;;;;;;12.77;4.97;;;16.90;99.90;;;;;;6097350;23;20018;-72
2021/09/01 07:35:12;;;;;;;11.65;4.95;;;16.90;99.90;;;;;;6123866;23;20042;-72
2021/09/01 07:37:45;;;;;;;9.45;4.68;;;16.90;99.90;;;;;;6123635;23;20014;-72
2021/09/01 07:40:13;;;;;;;9.43;4.25;;;17.00;99.90;;;;;;6123846;23;20014;-72
2021/09/01 07:42:39;;;;;;;13.27;5.03;;;17.00;99.90;;;;;;6097359;23;20018;-72
2021/09/01 07:45:06;;;;;;;9.65;4.40;;;17.10;99.90;;;;;;6124056;23;20032;-72
2021/09/01 07:47:32;;;;;;;11.23;4.38;;;17.10;99.90;;;;;;6097256;23;20018;-72
2021/09/01 07:49:58;;;;;;;10.70;4.50;;;17.20;99.90;;;;;;6097643;23;20013;-77
2021/09/01 07:52:23;;;;;;;15.80;4.82;;;17.20;99.90;;;;;;6096979;23;20101;-76
2021/09/01 07:54:49;;;;;;;11.45;4.70;;;17.20;99.90;;;;;;6097321;23;20403;-77
2021/09/01 07:57:14;;;;;;;10.98;4.38;;;17.30;99.90;;;;;;6097171;23;20021;-77
2021/09/01 07:59:40;;;;;;;12.00;4.43;;;17.30;99.90;;;;;;6097410;23;20438;-77
2021/09/01 08:02:06;;;;;;;13.13;4.70;;;17.40;99.90;;;;;;6097270;23;20441;-76
2021/09/01 08:04:32;;;;;;;12.65;4.82;;;17.40;99.90;;;;;;6097257;23;20014;-77
2021/09/01 08:06:57;;;;;;;12.50;4.40;;;17.50;99.90;;;;;;6097560;23;20631;-77
2021/09/01 08:09:23;;;;;;;16.02;5.18;;;17.60;99.90;;;;;;6097290;23;20395;-76
2021/09/01 08:11:48;;;;;;;12.20;4.32;;;17.60;99.90;;;;;;6097364;23;20394;-76
2021/09/01 08:14:14;;;;;;;11.73;4.63;;;17.80;99.90;;;;;;6123821;23;20122;-77
2021/09/01 08:16:39;;;;;;;14.20;5.47;;;17.90;99.90;;;;;;6097316;23;20100;-77
2021/09/01 08:19:05;;;;;;;9.73;4.43;;;18.00;99.90;;;;;;6123307;23;20010;-76
2021/09/01 08:21:31;;;;;;;10.93;4.63;;;18.00;99.90;;;;;;6097030;23;20093;-77
2021/09/01 08:23:56;;;;;;;11.35;4.03;;;18.10;99.90;;;;;;6097012;23;20021;-76
2021/09/01 08:26:22;;;;;;;14.02;5.00;;;18.10;99.90;;;;;;6097137;23;20029;-78
2021/09/01 08:28:49;;;;;;;12.20;4.68;;;18.20;99.90;;;;;;6096989;23;20085;-76
2021/09/01 08:31:15;;;;;;;13.63;5.07;;;18.20;99.90;;;;;;6096929;23;20014;-77
2021/09/01 08:33:40;;;;;;;15.90;5.13;;;18.30;99.90;;;;;;6096940;23;20053;-77
2021/09/01 08:36:06;;;;;;;12.35;4.47;;;18.30;99.90;;;;;;6097114;23;20018;-77
2021/09/01 08:38:31;;;;;;;11.05;4.97;;;18.30;99.90;;;;;;6097292;23;20112;-76
2021/09/01 08:40:57;;;;;;;12.48;4.65;;;18.30;99.90;;;;;;6072790;23;20013;-77
2021/09/01 08:43:23;;;;;;;12.10;4.40;;;18.30;99.90;;;;;;6096930;23;20022;-77
2021/09/01 08:45:49;;;;;;;11.45;4.55;;;18.20;99.90;;;;;;6097100;23;20093;-77
2021/09/01 08:48:16;;;;;;;11.30;4.20;;;18.20;99.90;;;;;;6072828;23;20068;-77
2021/09/01 08:50:43;;;;;;;10.00;4.45;;;18.30;99.90;;;;;;6096885;23;20014;-77
2021/09/01 08:53:09;;;;;;;11.88;4.63;;;18.40;99.90;;;;;;6096753;23;20010;-76
2021/09/01 08:55:34;;;;;;;9.95;4.40;;;18.50;99.90;;;;;;6072976;23;20040;-72
2021/09/01 08:58:00;;;;;;;11.32;4.40;;;18.60;99.90;;;;;;6123313;23;20433;-72
2021/09/01 09:00:26;;;;;;;10.10;4.22;;;18.70;99.90;;;;;;6123487;23;20021;-71
2021/09/01 09:02:57;;;;;;;9.68;4.13;;;18.80;99.90;;;;;;6123198;23;20014;-72
2021/09/01 09:05:30;;;;;;;11.95;4.45;;;18.80;99.90;;;;;;6122896;23;20056;-72
2021/09/01 09:07:56;;;;;;;14.50;4.47;;;18.90;99.90;;;;;;6122793;23;20453;-72
2021/09/01 09:10:25;;;;;;;10.90;4.38;;;19.00;99.90;;;;;;6122947;23;20037;-72
2021/09/01 09:13:12;;;;;;;9.32;3.60;;;19.00;99.90;;;;;;6123254;23;20330;-72
2021/09/01 09:15:39;;;;;;;10.15;4.05;;;19.10;99.90;;;;;;6097223;23;20346;-72
2021/09/01 09:18:27;;;;;;;15.32;4.55;;;19.20;99.90;;;;;;6096735;23;20467;-72
2021/09/01 09:21:16;;;;;;;9.35;3.92;;;19.40;99.90;;;;;;6096813;23;20025;-72
2021/09/01 09:23:47;;;;;;;9.35;4.50;;;19.50;99.90;;;;;;6121297;23;20022;-72
2021/09/01 09:26:32;;;;;;;11.60;4.53;;;19.60;99.90;;;;;;6123161;23;20017;-72
2021/09/01 09:29:05;;;;;;;10.48;4.60;;;19.60;99.90;;;;;;6123139;23;20113;-72
2021/09/01 09:31:31;;;;;;;11.02;3.97;;;19.60;99.90;;;;;;6123499;23;20061;-72
2021/09/01 09:34:04;;;;;;;11.45;4.40;;;19.60;99.90;;;;;;6122601;23;20014;-72
2021/09/01 09:36:29;;;;;;;13.07;4.40;;;19.60;99.90;;;;;;6121337;23;20081;-72
2021/09/01 09:38:55;;;;;;;13.00;3.80;;;19.60;99.90;;;;;;6121091;23;20298;-72
2021/09/01 09:41:25;;;;;;;11.63;4.10;;;19.60;99.90;;;;;;6121287;23;20046;-72
2021/09/01 09:43:52;;;;;;;9.93;4.18;;;19.80;99.90;;;;;;6121461;23;20032;-72
2021/09/01 09:46:18;;;;;;;10.38;4.00;;;19.80;99.90;;;;;;6123120;23;20017;-72
2021/09/01 09:48:46;;;;;;;11.05;4.03;;;19.90;99.90;;;;;;6123116;23;20319;-72
2021/09/01 09:51:14;;;;;;;11.13;4.03;;;19.80;99.90;;;;;;6123037;23;20454;-72
2021/09/01 09:53:42;;;;;;;8.88;3.63;;;19.80;99.90;;;;;;6122986;23;20017;-72
2021/09/01 09:56:20;;;;;;;8.25;3.60;;;19.70;99.90;;;;;;6122817;23;20022;-72
2021/09/01 09:58:48;;;;;;;11.38;3.80;;;19.40;99.90;;;;;;6122988;23;20064;-72
2021/09/01 10:01:16;;;;;;;10.27;4.05;;;19.50;99.90;;;;;;6124635;23;20022;-72
2021/09/01 10:03:42;;;;;;;16.20;4.35;;;19.40;99.90;;;;;;6124801;23;20023;-72
2021/09/01 10:06:10;;;;;;;13.13;3.67;;;19.50;99.90;;;;;;6124661;23;20014;-72
2021/09/01 10:08:37;;;;;;;13.70;4.00;;;19.30;99.90;;;;;;6124669;23;20014;-72
2021/09/01 10:11:09;;;;;;;12.90;4.00;;;19.50;99.90;;;;;;6122509;23;20659;-72
2021/09/01 10:13:42;;;;;;;11.82;4.15;;;19.60;99.90;;;;;;6124396;23;20029;-72
2021/09/01 10:16:20;;;;;;;9.82;4.00;;;19.70;99.90;;;;;;6122958;23;20014;-72
2021/09/01 10:19:10;;;;;;;13.20;4.63;;;19.70;99.90;;;;;;6124663;23;20017;-72
2021/09/01 10:21:43;;;;;;;8.52;3.35;;;19.80;99.90;;;;;;6132876;23;20017;-72
2021/09/01 10:24:28;;;;;;;10.85;4.30;;;19.90;99.90;;;;;;6154048;23;20040;-72
2021/09/01 10:27:02;;;;;;;12.90;4.40;;;19.70;99.90;;;;;;6153858;23;20024;-72
2021/09/01 10:29:40;;;;;;;12.60;4.38;;;19.90;99.90;;;;;;6127501;23;20349;-72
2021/09/01 10:32:21;;;;;;;12.02;4.88;;;20.10;99.90;;;;;;6127303;23;20009;-72
2021/09/01 10:34:47;;;;;;;9.90;3.60;;;20.10;99.90;;;;;;6153765;23;20033;-72
2021/09/01 10:37:39;;;;;;;9.63;3.72;;;20.20;99.90;;;;;;6127314;23;20013;-72
2021/09/01 10:40:07;;;;;;;13.65;4.68;;;20.20;99.90;;;;;;6127372;23;20037;-72
2021/09/01 10:42:41;;;;;;;13.30;4.10;;;20.40;99.90;;;;;;6127511;23;20037;-72
2021/09/01 10:45:09;;;;;;;10.93;4.35;;;20.50;99.90;;;;;;6127202;23;20109;-72
2021/09/01 10:47:57;;;;;;;8.60;3.80;;;20.60;99.90;;;;;;6102979;23;20044;-72
2021/09/01 10:50:23;;;;;;;11.68;4.43;;;20.80;99.90;;;;;;6102578;23;20029;-72
2021/09/01 10:53:12;;;;;;;11.32;4.35;;;20.30;99.90;;;;;;6153802;23;20009;-72
2021/09/01 10:55:54;;;;;;;10.68;4.00;;;20.50;99.90;;;;;;6127270;23;20080;-72
2021/09/01 10:58:23;;;;;;;9.05;4.20;;;20.60;99.90;;;;;;6153877;23;20024;-72
2021/09/01 11:01:00;;;;;;;12.68;4.35;;;20.60;99.90;;;;;;6127163;23;20014;-72
2021/09/01 11:03:27;;;;;;;13.23;4.85;;;20.80;99.90;;;;;;6126968;23;20102;-72
2021/09/01 11:05:53;;;;;;;11.48;4.10;;;20.80;99.90;;;;;;6153209;23;20318;-72
2021/09/01 11:08:18;;;;;;;9.73;4.50;;;20.80;99.90;;;;;;6127138;23;20029;-73
2021/09/01 11:10:57;;;;;;;10.57;3.90;;;20.80;99.90;;;;;;6151495;23;20032;-73
2021/09/01 11:13:38;;;;;;;10.38;4.35;;;20.60;99.90;;;;;;6153556;23;20080;-72
2021/09/01 11:16:22;;;;;;;8.57;3.67;;;20.40;99.90;;;;;;6153409;23;20023;-72
2021/09/01 11:18:58;;;;;;;10.75;3.63;;;20.40;99.90;;;;;;6127026;23;20457;-72
2021/09/01 11:21:24;;;;;;;7.55;3.65;;;20.20;99.90;;;;;;6153178;23;20030;-72
2021/09/01 11:23:50;;;;;;;9.52;3.78;;;20.20;99.90;;;;;;6153519;23;20017;-72
2021/09/01 11:26:15;;;;;;;13.45;4.10;;;20.10;99.90;;;;;;6127201;23;20017;-72
2021/09/01 11:28:41;;;;;;;9.70;4.28;;;20.10;99.90;;;;;;6153489;23;20188;-72
2021/09/01 11:31:18;;;;;;;9.95;3.70;;;20.10;99.90;;;;;;6153225;23;20014;-72
2021/09/01 11:33:44;;;;;;;7.80;3.90;;;20.10;99.90;;;;;;6126928;23;20021;-72
2021/09/01 11:36:09;;;;;;;10.93;3.70;;;20.10;99.90;;;;;;6127161;23;20021;-70
2021/09/01 11:38:44;;;;;;;10.90;3.75;;;20.20;99.90;;;;;;6126854;23;20471;-70
2021/09/01 11:41:10;;;;;;;9.07;3.90;;;20.20;99.90;;;;;;6126701;23;20092;-70
2021/09/01 11:43:35;;;;;;;10.80;3.88;;;20.10;99.90;;;;;;6126841;23;20362;-70
2021/09/01 11:46:01;;;;;;;11.45;3.70;;;19.70;99.90;;;;;;6126691;23;20009;-70
2021/09/01 11:48:40;;;;;;;9.65;3.97;;;19.60;99.90;;;;;;6126754;23;20437;-70
2021/09/01 11:51:06;;;;;;;10.20;3.78;;;19.70;99.90;;;;;;6126427;23;20018;-70
2021/09/01 11:53:40;;;;;;;11.15;4.07;;;19.50;99.90;;;;;;6127078;23;20010;-69
2021/09/01 11:56:07;;;;;;;11.70;3.95;;;19.60;99.90;;;;;;6126884;23;20056;-70
2021/09/01 11:58:32;;;;;;;10.60;3.65;;;19.20;99.90;;;;;;6102117;23;20022;-69
2021/09/01 12:00:59;;;;;;;9.10;3.70;;;19.20;99.90;;;;;;6126711;23;20017;-70
2021/09/01 12:03:25;;;;;;;11.82;4.00;;;19.30;99.90;;;;;;6126581;23;20041;-70
2021/09/01 12:06:08;;;;;;;9.85;3.78;;;19.20;99.90;;;;;;6102149;23;20017;-70
2021/09/01 12:08:45;;;;;;;10.25;3.47;;;19.20;99.90;;;;;;6126335;23;20100;-70
2021/09/01 12:11:12;;;;;;;11.68;4.03;;;19.20;99.90;;;;;;6126388;23;20060;-69
2021/09/01 12:13:47;;;;;;;9.23;3.67;;;19.30;99.90;;;;;;6152477;23;20017;-69
2021/09/01 12:16:14;;;;;;;11.20;3.72;;;19.30;99.90;;;;;;6101715;23;20337;-69
2021/09/01 12:19:01;;;;;;;8.30;3.17;;;19.30;99.90;;;;;;6102000;23;20031;-69
2021/09/01 12:21:48;;;;;;;11.75;3.78;;;19.40;99.90;;;;;;6126503;23;20017;-69
2021/09/01 12:24:16;;;;;;;8.07;3.40;;;19.40;99.90;;;;;;6126499;23;20013;-69
2021/09/01 12:26:54;;;;;;;10.02;3.55;;;19.40;99.90;;;;;;6152509;23;20014;-69
2021/09/01 12:29:32;;;;;;;9.50;3.80;;;19.50;99.90;;;;;;6101899;23;20014;-70
2021/09/01 12:32:00;;;;;;;8.55;3.47;;;19.40;99.90;;;;;;6126119;23;20097;-70
2021/09/01 12:34:31;;;;;;;10.63;3.67;;;19.40;99.90;;;;;;6126349;23;20040;-70
2021/09/01 12:37:04;;;;;;;7.82;3.33;;;19.40;99.90;;;;;;6126129;23;20025;-70
2021/09/01 12:39:44;;;;;;;8.68;3.55;;;19.20;99.90;;;;;;6126327;23;20024;-70
2021/09/01 12:42:27;;;;;;;11.93;3.80;;;19.30;99.90;;;;;;6126573;23;20109;-70